sensor_id;sensor_type;location;lat;lon;timestamp;P1;durP1;ratioP1;P2;durP2;ratioP2
76546;SDS011;65390;53.014;8.886;2023-02-03T00:02:18;32.63;;;16.20;;
76546;SDS011;65390;53.014;8.886;2023-02-03T00:04:43;31.25;;;15.70;;
76546;SDS011;65390;53.014;8.886;2023-02-03T00:07:10;32.63;;;16.65;;
76546;SDS011;65390;53.014;8.886;2023-02-03T00:09:37;34.20;;;18.55;;
76546;SDS011;65390;53.014;8.886;2023-02-03T00:12:03;32.95;;;16.60;;
76546;SDS011;65390;53.014;8.886;2023-02-03T00:14:28;31.08;;;17.00;;
76546;SDS011;65390;53.014;8.886;2023-02-03T00:16:54;26.67;;;14.82;;
76546;SDS011;65390;53.014;8.886;2023-02-03T00:19:19;41.65;;;18.13;;
76546;SDS011;65390;53.014;8.886;2023-02-03T00:21:45;34.08;;;17.15;;
76546;SDS011;65390;53.014;8.886;2023-02-03T00:24:10;38.45;;;16.88;;
76546;SDS011;65390;53.014;8.886;2023-02-03T00:26:39;33.00;;;14.98;;
76546;SDS011;65390;53.014;8.886;2023-02-03T00:29:06;28.90;;;12.95;;
76546;SDS011;65390;53.014;8.886;2023-02-03T00:31:33;29.67;;;14.48;;
76546;SDS011;65390;53.014;8.886;2023-02-03T00:33:58;37.20;;;15.00;;
76546;SDS011;65390;53.014;8.886;2023-02-03T00:36:24;26.45;;;13.10;;
76546;SDS011;65390;53.014;8.886;2023-02-03T00:38:50;25.40;;;13.63;;
76546;SDS011;65390;53.014;8.886;2023-02-03T00:41:15;23.98;;;12.27;;
76546;SDS011;65390;53.014;8.886;2023-02-03T00:43:41;23.80;;;13.07;;
76546;SDS011;65390;53.014;8.886;2023-02-03T00:46:07;24.05;;;12.63;;
76546;SDS011;65390;53.014;8.886;2023-02-03T00:48:32;25.20;;;12.63;;
76546;SDS011;65390;53.014;8.886;2023-02-03T00:50:58;24.05;;;12.38;;
76546;SDS011;65390;53.014;8.886;2023-02-03T00:53:23;19.67;;;11.00;;
76546;SDS011;65390;53.014;8.886;2023-02-03T00:55:48;22.38;;;10.68;;
76546;SDS011;65390;53.014;8.886;2023-02-03T00:58:16;26.25;;;11.88;;
76546;SDS011;65390;53.014;8.886;2023-02-03T01:00:42;19.50;;;10.48;;
76546;SDS011;65390;53.014;8.886;2023-02-03T01:03:07;17.73;;;10.82;;
76546;SDS011;65390;53.014;8.886;2023-02-03T01:05:34;23.48;;;9.35;;
76546;SDS011;65390;53.014;8.886;2023-02-03T01:07:59;19.58;;;10.00;;
76546;SDS011;65390;53.014;8.886;2023-02-03T01:10:25;20.70;;;9.55;;
76546;SDS011;65390;53.014;8.886;2023-02-03T01:12:51;15.90;;;8.82;;
76546;SDS011;65390;53.014;8.886;2023-02-03T01:15:16;18.35;;;9.00;;
76546;SDS011;65390;53.014;8.886;2023-02-03T01:17:42;17.73;;;8.93;;
76546;SDS011;65390;53.014;8.886;2023-02-03T01:20:08;27.00;;;9.85;;
76546;SDS011;65390;53.014;8.886;2023-02-03T01:22:36;19.92;;;9.25;;
76546;SDS011;65390;53.014;8.886;2023-02-03T01:25:01;16.33;;;8.18;;
76546;SDS011;65390;53.014;8.886;2023-02-03T01:27:27;20.90;;;8.00;;
76546;SDS011;65390;53.014;8.886;2023-02-03T01:29:52;18.15;;;7.72;;
76546;SDS011;65390;53.014;8.886;2023-02-03T01:32:18;12.23;;;6.60;;
76546;SDS011;65390;53.014;8.886;2023-02-03T01:34:43;9.65;;;6.43;;
76546;SDS011;65390;53.014;8.886;2023-02-03T01:37:09;18.40;;;7.63;;
76546;SDS011;65390;53.014;8.886;2023-02-03T01:39:34;17.60;;;7.07;;
76546;SDS011;65390;53.014;8.886;2023-02-03T01:41:59;12.43;;;7.07;;
76546;SDS011;65390;53.014;8.886;2023-02-03T01:47:03;16.95;;;7.18;;
76546;SDS011;65390;53.014;8.886;2023-02-03T01:52:47;18.45;;;6.90;;
76546;SDS011;65390;53.014;8.886;2023-02-03T01:55:16;18.75;;;6.47;;
76546;SDS011;65390;53.014;8.886;2023-02-03T01:58:45;15.52;;;7.13;;
76546;SDS011;65390;53.014;8.886;2023-02-03T02:00:49;22.67;;;7.43;;
76546;SDS011;65390;53.014;8.886;2023-02-03T02:03:14;21.20;;;7.88;;
76546;SDS011;65390;53.014;8.886;2023-02-03T02:05:47;12.07;;;8.03;;
76546;SDS011;65390;53.014;8.886;2023-02-03T02:08:14;17.65;;;8.95;;
76546;SDS011;65390;53.014;8.886;2023-02-03T02:10:43;17.73;;;7.90;;
76546;SDS011;65390;53.014;8.886;2023-02-03T02:13:09;17.08;;;10.07;;
76546;SDS011;65390;53.014;8.886;2023-02-03T02:15:42;16.88;;;7.82;;
76546;SDS011;65390;53.014;8.886;2023-02-03T02:21:15;16.75;;;8.48;;
76546;SDS011;65390;53.014;8.886;2023-02-03T02:38:12;17.55;;;7.22;;
76546;SDS011;65390;53.014;8.886;2023-02-03T02:41:01;15.70;;;6.60;;
76546;SDS011;65390;53.014;8.886;2023-02-03T02:43:40;14.27;;;6.57;;
76546;SDS011;65390;53.014;8.886;2023-02-03T02:46:10;14.13;;;8.25;;
76546;SDS011;65390;53.014;8.886;2023-02-03T02:51:13;18.13;;;6.93;;
76546;SDS011;65390;53.014;8.886;2023-02-03T02:53:42;10.00;;;6.25;;
76546;SDS011;65390;53.014;8.886;2023-02-03T02:56:12;13.57;;;6.97;;
76546;SDS011;65390;53.014;8.886;2023-02-03T02:58:40;16.20;;;6.97;;
76546;SDS011;65390;53.014;8.886;2023-02-03T03:01:08;11.07;;;5.88;;
76546;SDS011;65390;53.014;8.886;2023-02-03T03:03:34;15.27;;;6.10;;
76546;SDS011;65390;53.014;8.886;2023-02-03T03:06:04;16.67;;;6.65;;
76546;SDS011;65390;53.014;8.886;2023-02-03T03:08:38;11.23;;;5.30;;
76546;SDS011;65390;53.014;8.886;2023-02-03T03:11:10;17.23;;;6.35;;
76546;SDS011;65390;53.014;8.886;2023-02-03T03:13:38;11.40;;;4.45;;
76546;SDS011;65390;53.014;8.886;2023-02-03T03:16:08;11.00;;;5.07;;
76546;SDS011;65390;53.014;8.886;2023-02-03T03:18:41;11.45;;;4.72;;
76546;SDS011;65390;53.014;8.886;2023-02-03T03:21:12;12.20;;;5.72;;
76546;SDS011;65390;53.014;8.886;2023-02-03T03:23:44;14.45;;;5.00;;
76546;SDS011;65390;53.014;8.886;2023-02-03T03:26:14;15.93;;;5.20;;
76546;SDS011;65390;53.014;8.886;2023-02-03T03:28:49;10.35;;;5.28;;
76546;SDS011;65390;53.014;8.886;2023-02-03T03:31:19;8.20;;;4.43;;
76546;SDS011;65390;53.014;8.886;2023-02-03T03:33:45;12.60;;;6.13;;
76546;SDS011;65390;53.014;8.886;2023-02-03T03:36:17;14.50;;;6.22;;
76546;SDS011;65390;53.014;8.886;2023-02-03T03:39:07;11.95;;;5.25;;
76546;SDS011;65390;53.014;8.886;2023-02-03T03:41:40;10.45;;;4.85;;
76546;SDS011;65390;53.014;8.886;2023-02-03T03:44:14;11.82;;;4.90;;
76546;SDS011;65390;53.014;8.886;2023-02-03T03:46:45;8.90;;;4.55;;
76546;SDS011;65390;53.014;8.886;2023-02-03T03:49:19;14.23;;;4.85;;
76546;SDS011;65390;53.014;8.886;2023-02-03T03:51:52;12.57;;;4.80;;
76546;SDS011;65390;53.014;8.886;2023-02-03T03:54:22;12.75;;;4.30;;
76546;SDS011;65390;53.014;8.886;2023-02-03T03:57:12;13.05;;;4.82;;
76546;SDS011;65390;53.014;8.886;2023-02-03T03:59:46;10.40;;;5.15;;
76546;SDS011;65390;53.014;8.886;2023-02-03T04:02:13;14.00;;;3.88;;
76546;SDS011;65390;53.014;8.886;2023-02-03T04:04:40;21.48;;;5.10;;
76546;SDS011;65390;53.014;8.886;2023-02-03T04:07:09;12.30;;;4.95;;
76546;SDS011;65390;53.014;8.886;2023-02-03T04:09:36;10.80;;;5.47;;
76546;SDS011;65390;53.014;8.886;2023-02-03T04:12:02;15.88;;;5.43;;
76546;SDS011;65390;53.014;8.886;2023-02-03T04:14:34;20.48;;;5.20;;
76546;SDS011;65390;53.014;8.886;2023-02-03T04:17:02;9.23;;;5.28;;
76546;SDS011;65390;53.014;8.886;2023-02-03T04:19:28;15.68;;;6.65;;
76546;SDS011;65390;53.014;8.886;2023-02-03T04:21:54;10.90;;;5.13;;
76546;SDS011;65390;53.014;8.886;2023-02-03T04:24:19;12.75;;;4.88;;
76546;SDS011;65390;53.014;8.886;2023-02-03T04:26:45;16.00;;;5.55;;
76546;SDS011;65390;53.014;8.886;2023-02-03T04:29:10;13.77;;;5.00;;
76546;SDS011;65390;53.014;8.886;2023-02-03T04:31:36;13.13;;;6.47;;
76546;SDS011;65390;53.014;8.886;2023-02-03T04:34:02;13.05;;;5.88;;
76546;SDS011;65390;53.014;8.886;2023-02-03T04:36:28;12.20;;;5.38;;
76546;SDS011;65390;53.014;8.886;2023-02-03T04:38:54;12.10;;;4.90;;
76546;SDS011;65390;53.014;8.886;2023-02-03T04:41:20;15.75;;;6.38;;
76546;SDS011;65390;53.014;8.886;2023-02-03T04:43:45;20.50;;;6.43;;
76546;SDS011;65390;53.014;8.886;2023-02-03T04:46:10;17.38;;;5.78;;
76546;SDS011;65390;53.014;8.886;2023-02-03T04:48:36;12.95;;;5.78;;
76546;SDS011;65390;53.014;8.886;2023-02-03T04:51:02;12.68;;;5.15;;
76546;SDS011;65390;53.014;8.886;2023-02-03T04:53:29;18.60;;;5.03;;
76546;SDS011;65390;53.014;8.886;2023-02-03T04:55:55;12.18;;;4.95;;
76546;SDS011;65390;53.014;8.886;2023-02-03T04:58:20;17.15;;;6.07;;
76546;SDS011;65390;53.014;8.886;2023-02-03T05:00:46;13.45;;;6.32;;
76546;SDS011;65390;53.014;8.886;2023-02-03T05:03:11;22.15;;;6.40;;
76546;SDS011;65390;53.014;8.886;2023-02-03T05:05:37;36.88;;;6.30;;
76546;SDS011;65390;53.014;8.886;2023-02-03T05:08:02;15.73;;;7.40;;
76546;SDS011;65390;53.014;8.886;2023-02-03T05:10:28;17.20;;;5.45;;
76546;SDS011;65390;53.014;8.886;2023-02-03T05:12:53;15.35;;;5.43;;
76546;SDS011;65390;53.014;8.886;2023-02-03T05:15:19;14.50;;;4.95;;
76546;SDS011;65390;53.014;8.886;2023-02-03T05:17:44;14.13;;;5.55;;
76546;SDS011;65390;53.014;8.886;2023-02-03T05:20:10;21.27;;;5.35;;
76546;SDS011;65390;53.014;8.886;2023-02-03T05:22:35;14.65;;;5.30;;
76546;SDS011;65390;53.014;8.886;2023-02-03T05:25:01;12.55;;;5.50;;
76546;SDS011;65390;53.014;8.886;2023-02-03T05:27:27;12.70;;;5.18;;
76546;SDS011;65390;53.014;8.886;2023-02-03T05:29:52;17.45;;;4.90;;
76546;SDS011;65390;53.014;8.886;2023-02-03T05:32:18;11.02;;;5.13;;
76546;SDS011;65390;53.014;8.886;2023-02-03T05:34:43;14.07;;;5.00;;
76546;SDS011;65390;53.014;8.886;2023-02-03T05:37:08;11.40;;;4.80;;
76546;SDS011;65390;53.014;8.886;2023-02-03T05:39:34;15.20;;;5.15;;
76546;SDS011;65390;53.014;8.886;2023-02-03T05:41:59;13.63;;;5.30;;
76546;SDS011;65390;53.014;8.886;2023-02-03T05:44:27;20.15;;;5.22;;
76546;SDS011;65390;53.014;8.886;2023-02-03T05:46:54;21.55;;;6.88;;
76546;SDS011;65390;53.014;8.886;2023-02-03T05:49:21;12.90;;;5.80;;
76546;SDS011;65390;53.014;8.886;2023-02-03T05:51:50;14.87;;;5.63;;
76546;SDS011;65390;53.014;8.886;2023-02-03T05:54:16;15.88;;;5.30;;
76546;SDS011;65390;53.014;8.886;2023-02-03T05:56:42;23.73;;;5.88;;
76546;SDS011;65390;53.014;8.886;2023-02-03T05:59:07;19.65;;;6.15;;
76546;SDS011;65390;53.014;8.886;2023-02-03T06:01:33;15.73;;;6.28;;
76546;SDS011;65390;53.014;8.886;2023-02-03T06:03:59;18.30;;;5.78;;
76546;SDS011;65390;53.014;8.886;2023-02-03T06:06:25;13.55;;;7.22;;
76546;SDS011;65390;53.014;8.886;2023-02-03T06:08:56;13.25;;;5.70;;
76546;SDS011;65390;53.014;8.886;2023-02-03T06:11:22;15.55;;;5.65;;
76546;SDS011;65390;53.014;8.886;2023-02-03T06:13:48;21.05;;;6.80;;
76546;SDS011;65390;53.014;8.886;2023-02-03T06:16:14;16.83;;;6.72;;
76546;SDS011;65390;53.014;8.886;2023-02-03T06:18:39;19.40;;;8.90;;
76546;SDS011;65390;53.014;8.886;2023-02-03T06:21:05;19.02;;;6.53;;
76546;SDS011;65390;53.014;8.886;2023-02-03T06:23:30;19.88;;;7.65;;
76546;SDS011;65390;53.014;8.886;2023-02-03T06:25:55;25.75;;;7.25;;
76546;SDS011;65390;53.014;8.886;2023-02-03T06:28:22;18.23;;;7.28;;
76546;SDS011;65390;53.014;8.886;2023-02-03T06:30:51;17.55;;;7.75;;
76546;SDS011;65390;53.014;8.886;2023-02-03T06:33:17;22.80;;;8.07;;
76546;SDS011;65390;53.014;8.886;2023-02-03T06:35:45;18.45;;;8.45;;
76546;SDS011;65390;53.014;8.886;2023-02-03T06:38:10;21.10;;;9.13;;
76546;SDS011;65390;53.014;8.886;2023-02-03T06:40:36;16.63;;;8.90;;
76546;SDS011;65390;53.014;8.886;2023-02-03T06:43:01;15.88;;;8.18;;
76546;SDS011;65390;53.014;8.886;2023-02-03T06:45:26;15.80;;;8.52;;
76546;SDS011;65390;53.014;8.886;2023-02-03T06:47:52;20.08;;;8.68;;
76546;SDS011;65390;53.014;8.886;2023-02-03T06:50:17;18.98;;;8.63;;
76546;SDS011;65390;53.014;8.886;2023-02-03T06:52:45;17.50;;;7.32;;
76546;SDS011;65390;53.014;8.886;2023-02-03T06:55:12;19.17;;;9.23;;
76546;SDS011;65390;53.014;8.886;2023-02-03T06:57:42;21.92;;;6.93;;
76546;SDS011;65390;53.014;8.886;2023-02-03T07:00:09;19.52;;;6.22;;
76546;SDS011;65390;53.014;8.886;2023-02-03T07:02:35;13.25;;;5.93;;
76546;SDS011;65390;53.014;8.886;2023-02-03T07:05:00;12.48;;;5.85;;
76546;SDS011;65390;53.014;8.886;2023-02-03T07:07:25;16.17;;;5.05;;
76546;SDS011;65390;53.014;8.886;2023-02-03T07:09:51;14.18;;;5.35;;
76546;SDS011;65390;53.014;8.886;2023-02-03T07:12:16;16.60;;;4.88;;
76546;SDS011;65390;53.014;8.886;2023-02-03T07:14:42;8.20;;;4.75;;
76546;SDS011;65390;53.014;8.886;2023-02-03T07:17:09;18.73;;;4.60;;
76546;SDS011;65390;53.014;8.886;2023-02-03T07:19:35;14.05;;;4.82;;
76546;SDS011;65390;53.014;8.886;2023-02-03T07:22:00;16.40;;;4.68;;
76546;SDS011;65390;53.014;8.886;2023-02-03T07:24:25;13.80;;;4.45;;
76546;SDS011;65390;53.014;8.886;2023-02-03T07:26:51;10.20;;;4.88;;
76546;SDS011;65390;53.014;8.886;2023-02-03T07:29:16;17.40;;;5.05;;
76546;SDS011;65390;53.014;8.886;2023-02-03T07:31:42;8.00;;;4.45;;
76546;SDS011;65390;53.014;8.886;2023-02-03T07:34:07;11.57;;;4.75;;
76546;SDS011;65390;53.014;8.886;2023-02-03T07:36:33;12.85;;;4.00;;
76546;SDS011;65390;53.014;8.886;2023-02-03T07:38:58;21.02;;;4.28;;
76546;SDS011;65390;53.014;8.886;2023-02-03T07:41:23;14.20;;;4.68;;
76546;SDS011;65390;53.014;8.886;2023-02-03T07:43:49;12.85;;;4.43;;
76546;SDS011;65390;53.014;8.886;2023-02-03T07:46:14;10.95;;;4.70;;
76546;SDS011;65390;53.014;8.886;2023-02-03T07:48:40;12.27;;;3.88;;
76546;SDS011;65390;53.014;8.886;2023-02-03T07:51:05;15.50;;;5.57;;
76546;SDS011;65390;53.014;8.886;2023-02-03T07:53:31;17.23;;;4.53;;
76546;SDS011;65390;53.014;8.886;2023-02-03T07:56:00;8.82;;;3.65;;
76546;SDS011;65390;53.014;8.886;2023-02-03T07:58:28;22.85;;;4.80;;
76546;SDS011;65390;53.014;8.886;2023-02-03T08:00:53;14.85;;;4.18;;
76546;SDS011;65390;53.014;8.886;2023-02-03T08:03:19;14.88;;;3.63;;
76546;SDS011;65390;53.014;8.886;2023-02-03T08:05:44;22.80;;;4.35;;
76546;SDS011;65390;53.014;8.886;2023-02-03T08:08:11;15.38;;;4.45;;
76546;SDS011;65390;53.014;8.886;2023-02-03T08:10:36;16.55;;;4.60;;
76546;SDS011;65390;53.014;8.886;2023-02-03T08:13:02;10.93;;;3.17;;
76546;SDS011;65390;53.014;8.886;2023-02-03T08:15:27;19.88;;;4.03;;
76546;SDS011;65390;53.014;8.886;2023-02-03T08:17:52;22.70;;;4.85;;
76546;SDS011;65390;53.014;8.886;2023-02-03T08:20:18;14.20;;;4.40;;
76546;SDS011;65390;53.014;8.886;2023-02-03T08:22:43;15.90;;;4.57;;
76546;SDS011;65390;53.014;8.886;2023-02-03T08:25:09;27.20;;;5.13;;
76546;SDS011;65390;53.014;8.886;2023-02-03T08:27:35;19.85;;;4.97;;
76546;SDS011;65390;53.014;8.886;2023-02-03T08:30:00;20.45;;;5.90;;
76546;SDS011;65390;53.014;8.886;2023-02-03T08:32:26;25.58;;;6.47;;
76546;SDS011;65390;53.014;8.886;2023-02-03T08:34:52;19.15;;;4.80;;
76546;SDS011;65390;53.014;8.886;2023-02-03T08:37:19;20.70;;;6.32;;
76546;SDS011;65390;53.014;8.886;2023-02-03T08:39:46;18.33;;;4.75;;
76546;SDS011;65390;53.014;8.886;2023-02-03T08:42:12;21.15;;;5.53;;
76546;SDS011;65390;53.014;8.886;2023-02-03T08:44:37;19.65;;;4.95;;
76546;SDS011;65390;53.014;8.886;2023-02-03T08:47:03;26.77;;;5.95;;
76546;SDS011;65390;53.014;8.886;2023-02-03T08:49:29;34.20;;;6.22;;
76546;SDS011;65390;53.014;8.886;2023-02-03T08:51:55;31.55;;;9.18;;
76546;SDS011;65390;53.014;8.886;2023-02-03T08:54:21;31.52;;;7.45;;
76546;SDS011;65390;53.014;8.886;2023-02-03T08:56:51;44.30;;;9.88;;
76546;SDS011;65390;53.014;8.886;2023-02-03T08:59:16;48.83;;;12.85;;
76546;SDS011;65390;53.014;8.886;2023-02-03T09:01:41;34.67;;;8.60;;
76546;SDS011;65390;53.014;8.886;2023-02-03T09:04:13;59.30;;;13.85;;
76546;SDS011;65390;53.014;8.886;2023-02-03T09:06:42;39.28;;;10.25;;
76546;SDS011;65390;53.014;8.886;2023-02-03T09:09:07;31.35;;;11.85;;
76546;SDS011;65390;53.014;8.886;2023-02-03T09:11:34;24.42;;;6.03;;
76546;SDS011;65390;53.014;8.886;2023-02-03T09:13:59;25.95;;;6.25;;
76546;SDS011;65390;53.014;8.886;2023-02-03T09:16:25;31.45;;;6.28;;
76546;SDS011;65390;53.014;8.886;2023-02-03T09:18:50;22.63;;;5.55;;
76546;SDS011;65390;53.014;8.886;2023-02-03T09:21:16;19.35;;;5.40;;
76546;SDS011;65390;53.014;8.886;2023-02-03T09:23:42;19.10;;;4.45;;
76546;SDS011;65390;53.014;8.886;2023-02-03T09:26:10;29.83;;;7.72;;
76546;SDS011;65390;53.014;8.886;2023-02-03T09:28:36;24.15;;;6.43;;
76546;SDS011;65390;53.014;8.886;2023-02-03T09:31:02;28.45;;;5.25;;
76546;SDS011;65390;53.014;8.886;2023-02-03T09:33:32;20.40;;;3.45;;
76546;SDS011;65390;53.014;8.886;2023-02-03T09:35:58;28.42;;;5.07;;
76546;SDS011;65390;53.014;8.886;2023-02-03T09:38:24;19.58;;;4.28;;
76546;SDS011;65390;53.014;8.886;2023-02-03T09:40:52;24.60;;;5.18;;
76546;SDS011;65390;53.014;8.886;2023-02-03T09:46:11;24.17;;;5.40;;
76546;SDS011;65390;53.014;8.886;2023-02-03T09:48:42;16.88;;;4.57;;
76546;SDS011;65390;53.014;8.886;2023-02-03T09:51:17;28.98;;;7.22;;
76546;SDS011;65390;53.014;8.886;2023-02-03T09:53:52;23.27;;;4.20;;
76546;SDS011;65390;53.014;8.886;2023-02-03T09:56:28;26.58;;;7.10;;
76546;SDS011;65390;53.014;8.886;2023-02-03T09:58:56;36.20;;;11.10;;
76546;SDS011;65390;53.014;8.886;2023-02-03T10:01:22;18.42;;;4.10;;
76546;SDS011;65390;53.014;8.886;2023-02-03T10:04:03;31.48;;;4.53;;
76546;SDS011;65390;53.014;8.886;2023-02-03T10:06:43;33.30;;;7.15;;
76546;SDS011;65390;53.014;8.886;2023-02-03T10:20:05;29.08;;;5.70;;
76546;SDS011;65390;53.014;8.886;2023-02-03T10:22:39;34.95;;;5.15;;
76546;SDS011;65390;53.014;8.886;2023-02-03T10:30:40;29.45;;;6.28;;
76546;SDS011;65390;53.014;8.886;2023-02-03T10:33:10;37.35;;;6.13;;
76546;SDS011;65390;53.014;8.886;2023-02-03T10:35:46;29.65;;;6.35;;
76546;SDS011;65390;53.014;8.886;2023-02-03T10:38:19;29.75;;;7.15;;
76546;SDS011;65390;53.014;8.886;2023-02-03T10:41:04;22.77;;;5.73;;
76546;SDS011;65390;53.014;8.886;2023-02-03T10:43:30;31.60;;;8.30;;
76546;SDS011;65390;53.014;8.886;2023-02-03T10:46:12;36.22;;;8.23;;
76546;SDS011;65390;53.014;8.886;2023-02-03T10:48:41;34.20;;;6.55;;
76546;SDS011;65390;53.014;8.886;2023-02-03T10:51:20;47.42;;;8.73;;
76546;SDS011;65390;53.014;8.886;2023-02-03T10:53:51;45.97;;;7.45;;
76546;SDS011;65390;53.014;8.886;2023-02-03T10:56:21;46.55;;;7.25;;
76546;SDS011;65390;53.014;8.886;2023-02-03T10:58:53;37.88;;;7.32;;
76546;SDS011;65390;53.014;8.886;2023-02-03T11:01:22;36.03;;;6.90;;
76546;SDS011;65390;53.014;8.886;2023-02-03T11:04:00;46.28;;;7.57;;
76546;SDS011;65390;53.014;8.886;2023-02-03T11:06:27;40.45;;;6.93;;
76546;SDS011;65390;53.014;8.886;2023-02-03T11:08:53;36.60;;;7.00;;
76546;SDS011;65390;53.014;8.886;2023-02-03T11:11:29;36.17;;;7.28;;
76546;SDS011;65390;53.014;8.886;2023-02-03T11:16:29;37.83;;;7.10;;
76546;SDS011;65390;53.014;8.886;2023-02-03T11:19:01;32.65;;;6.78;;
76546;SDS011;65390;53.014;8.886;2023-02-03T11:21:29;36.63;;;9.55;;
76546;SDS011;65390;53.014;8.886;2023-02-03T11:24:01;28.45;;;7.18;;
76546;SDS011;65390;53.014;8.886;2023-02-03T11:29:17;44.65;;;7.57;;
76546;SDS011;65390;53.014;8.886;2023-02-03T11:31:48;38.45;;;7.82;;
76546;SDS011;65390;53.014;8.886;2023-02-03T11:34:15;42.85;;;8.43;;
76546;SDS011;65390;53.014;8.886;2023-02-03T11:36:43;39.60;;;10.40;;
76546;SDS011;65390;53.014;8.886;2023-02-03T11:39:09;41.60;;;9.70;;
76546;SDS011;65390;53.014;8.886;2023-02-03T11:41:52;47.28;;;9.65;;
76546;SDS011;65390;53.014;8.886;2023-02-03T11:46:52;38.83;;;7.88;;
76546;SDS011;65390;53.014;8.886;2023-02-03T11:49:59;35.92;;;7.00;;
76546;SDS011;65390;53.014;8.886;2023-02-03T11:57:45;44.20;;;7.40;;
76546;SDS011;65390;53.014;8.886;2023-02-03T12:08:40;43.30;;;8.55;;
76546;SDS011;65390;53.014;8.886;2023-02-03T12:19:28;32.70;;;6.28;;
76546;SDS011;65390;53.014;8.886;2023-02-03T12:24:47;35.25;;;7.10;;
76546;SDS011;65390;53.014;8.886;2023-02-03T12:27:21;37.85;;;6.30;;
76546;SDS011;65390;53.014;8.886;2023-02-03T12:30:14;31.52;;;5.90;;
76546;SDS011;65390;53.014;8.886;2023-02-03T12:32:44;25.02;;;5.22;;
76546;SDS011;65390;53.014;8.886;2023-02-03T12:35:22;37.58;;;7.32;;
76546;SDS011;65390;53.014;8.886;2023-02-03T12:38:04;29.10;;;6.20;;
76546;SDS011;65390;53.014;8.886;2023-02-03T12:45:44;25.88;;;7.05;;
76546;SDS011;65390;53.014;8.886;2023-02-03T12:48:17;35.45;;;6.97;;
76546;SDS011;65390;53.014;8.886;2023-02-03T12:50:48;37.05;;;7.38;;
76546;SDS011;65390;53.014;8.886;2023-02-03T12:53:17;37.10;;;8.57;;
76546;SDS011;65390;53.014;8.886;2023-02-03T12:55:56;29.25;;;5.80;;
76546;SDS011;65390;53.014;8.886;2023-02-03T13:01:21;25.58;;;5.32;;
76546;SDS011;65390;53.014;8.886;2023-02-03T13:10:25;33.35;;;10.27;;
76546;SDS011;65390;53.014;8.886;2023-02-03T13:12:57;43.45;;;11.73;;
76546;SDS011;65390;53.014;8.886;2023-02-03T13:15:27;27.83;;;11.90;;
76546;SDS011;65390;53.014;8.886;2023-02-03T13:20:42;37.45;;;9.10;;
76546;SDS011;65390;53.014;8.886;2023-02-03T13:23:10;20.65;;;4.72;;
76546;SDS011;65390;53.014;8.886;2023-02-03T13:34:23;33.17;;;7.35;;
76546;SDS011;65390;53.014;8.886;2023-02-03T13:42:52;34.30;;;6.65;;
76546;SDS011;65390;53.014;8.886;2023-02-03T13:45:23;33.85;;;6.70;;
76546;SDS011;65390;53.014;8.886;2023-02-03T13:47:53;31.27;;;6.20;;
76546;SDS011;65390;53.014;8.886;2023-02-03T13:50:32;31.25;;;6.63;;
76546;SDS011;65390;53.014;8.886;2023-02-03T13:55:40;22.17;;;6.50;;
76546;SDS011;65390;53.014;8.886;2023-02-03T13:58:38;31.65;;;7.25;;
76546;SDS011;65390;53.014;8.886;2023-02-03T14:01:25;38.05;;;6.45;;
76546;SDS011;65390;53.014;8.886;2023-02-03T14:03:51;38.30;;;6.30;;
76546;SDS011;65390;53.014;8.886;2023-02-03T14:09:01;51.00;;;8.63;;
76546;SDS011;65390;53.014;8.886;2023-02-03T14:11:43;36.00;;;7.45;;
76546;SDS011;65390;53.014;8.886;2023-02-03T14:16:39;40.15;;;6.57;;
76546;SDS011;65390;53.014;8.886;2023-02-03T14:24:29;28.85;;;6.03;;
76546;SDS011;65390;53.014;8.886;2023-02-03T14:26:57;31.02;;;8.38;;
76546;SDS011;65390;53.014;8.886;2023-02-03T14:29:34;37.78;;;9.05;;
76546;SDS011;65390;53.014;8.886;2023-02-03T14:32:03;34.05;;;6.45;;
76546;SDS011;65390;53.014;8.886;2023-02-03T14:34:30;45.13;;;14.57;;
76546;SDS011;65390;53.014;8.886;2023-02-03T15:00:04;41.20;;;7.43;;
76546;SDS011;65390;53.014;8.886;2023-02-03T15:05:39;40.40;;;6.15;;
76546;SDS011;65390;53.014;8.886;2023-02-03T15:11:04;36.22;;;7.57;;
76546;SDS011;65390;53.014;8.886;2023-02-03T15:16:54;36.70;;;6.60;;
76546;SDS011;65390;53.014;8.886;2023-02-03T15:19:50;36.75;;;6.80;;
76546;SDS011;65390;53.014;8.886;2023-02-03T15:22:23;35.88;;;7.35;;
76546;SDS011;65390;53.014;8.886;2023-02-03T15:24:58;25.98;;;7.65;;
76546;SDS011;65390;53.014;8.886;2023-02-03T15:27:25;32.83;;;5.70;;
76546;SDS011;65390;53.014;8.886;2023-02-03T15:29:52;36.00;;;7.65;;
76546;SDS011;65390;53.014;8.886;2023-02-03T15:32:20;43.65;;;8.60;;
76546;SDS011;65390;53.014;8.886;2023-02-03T15:34:52;34.50;;;6.47;;
76546;SDS011;65390;53.014;8.886;2023-02-03T15:37:45;31.27;;;8.07;;
76546;SDS011;65390;53.014;8.886;2023-02-03T15:40:16;39.25;;;7.13;;
76546;SDS011;65390;53.014;8.886;2023-02-03T15:45:54;33.63;;;7.32;;
76546;SDS011;65390;53.014;8.886;2023-02-03T15:54:15;43.15;;;7.60;;
76546;SDS011;65390;53.014;8.886;2023-02-03T15:56:49;35.95;;;7.30;;
76546;SDS011;65390;53.014;8.886;2023-02-03T16:02:06;55.00;;;11.38;;
76546;SDS011;65390;53.014;8.886;2023-02-03T16:05:00;40.13;;;7.95;;
76546;SDS011;65390;53.014;8.886;2023-02-03T16:07:35;43.30;;;7.00;;
76546;SDS011;65390;53.014;8.886;2023-02-03T16:10:00;34.47;;;7.72;;
76546;SDS011;65390;53.014;8.886;2023-02-03T16:12:30;37.70;;;8.07;;
76546;SDS011;65390;53.014;8.886;2023-02-03T16:14:59;40.15;;;7.30;;
76546;SDS011;65390;53.014;8.886;2023-02-03T16:17:32;47.38;;;8.27;;
76546;SDS011;65390;53.014;8.886;2023-02-03T16:22:45;35.72;;;7.45;;
76546;SDS011;65390;53.014;8.886;2023-02-03T16:25:32;34.55;;;8.98;;
76546;SDS011;65390;53.014;8.886;2023-02-03T16:31:09;39.97;;;7.20;;
76546;SDS011;65390;53.014;8.886;2023-02-03T16:34:07;32.63;;;6.82;;
76546;SDS011;65390;53.014;8.886;2023-02-03T16:37:01;44.90;;;8.27;;
76546;SDS011;65390;53.014;8.886;2023-02-03T16:39:55;48.75;;;8.10;;
76546;SDS011;65390;53.014;8.886;2023-02-03T16:42:39;42.75;;;9.05;;
76546;SDS011;65390;53.014;8.886;2023-02-03T16:45:23;45.70;;;7.03;;
76546;SDS011;65390;53.014;8.886;2023-02-03T16:48:10;40.25;;;7.47;;
76546;SDS011;65390;53.014;8.886;2023-02-03T16:51:00;30.60;;;6.82;;
76546;SDS011;65390;53.014;8.886;2023-02-03T16:53:37;30.90;;;6.47;;
76546;SDS011;65390;53.014;8.886;2023-02-03T16:56:07;40.90;;;8.60;;
76546;SDS011;65390;53.014;8.886;2023-02-03T16:58:41;42.65;;;8.10;;
76546;SDS011;65390;53.014;8.886;2023-02-03T17:01:14;44.35;;;8.55;;
76546;SDS011;65390;53.014;8.886;2023-02-03T17:03:44;38.13;;;6.97;;
76546;SDS011;65390;53.014;8.886;2023-02-03T17:06:11;30.88;;;6.47;;
76546;SDS011;65390;53.014;8.886;2023-02-03T17:08:38;46.20;;;7.45;;
76546;SDS011;65390;53.014;8.886;2023-02-03T17:11:12;40.90;;;7.60;;
76546;SDS011;65390;53.014;8.886;2023-02-03T17:13:39;34.08;;;7.80;;
76546;SDS011;65390;53.014;8.886;2023-02-03T17:16:08;51.28;;;7.65;;
76546;SDS011;65390;53.014;8.886;2023-02-03T17:18:38;44.63;;;8.50;;
76546;SDS011;65390;53.014;8.886;2023-02-03T17:21:10;46.92;;;8.63;;
76546;SDS011;65390;53.014;8.886;2023-02-03T17:23:42;44.30;;;12.10;;
76546;SDS011;65390;53.014;8.886;2023-02-03T17:26:13;50.90;;;9.20;;
76546;SDS011;65390;53.014;8.886;2023-02-03T17:28:39;48.85;;;9.30;;
76546;SDS011;65390;53.014;8.886;2023-02-03T17:31:09;46.92;;;8.77;;
76546;SDS011;65390;53.014;8.886;2023-02-03T17:33:37;35.17;;;8.75;;
76546;SDS011;65390;53.014;8.886;2023-02-03T17:36:03;38.13;;;8.88;;
76546;SDS011;65390;53.014;8.886;2023-02-03T17:38:34;48.75;;;10.10;;
76546;SDS011;65390;53.014;8.886;2023-02-03T17:41:12;41.10;;;8.50;;